地図

経路データ

SID SEASON NUMBER BASIN SUBBASIN NAME ISO_TIME NATURE LAT LON WMO_WIND WMO_PRES WMO_AGENCY TRACK_TYPE DIST2LAND LANDFALL IFLAG USA_AGENCY USA_ATCF_ID USA_LAT USA_LON USA_RECORD USA_STATUS USA_WIND USA_PRES USA_SSHS USA_R34_NE USA_R34_SE USA_R34_SW USA_R34_NW USA_R50_NE USA_R50_SE USA_R50_SW USA_R50_NW USA_R64_NE USA_R64_SE USA_R64_SW USA_R64_NW USA_POCI USA_ROCI USA_RMW USA_EYE TOKYO_LAT TOKYO_LON TOKYO_GRADE TOKYO_WIND TOKYO_PRES TOKYO_R50_DIR TOKYO_R50_LONG TOKYO_R50_SHORT TOKYO_R30_DIR TOKYO_R30_LONG TOKYO_R30_SHORT TOKYO_LAND CMA_LAT CMA_LON CMA_CAT CMA_WIND CMA_PRES HKO_LAT HKO_LON HKO_CAT HKO_WIND HKO_PRES NEWDELHI_LAT NEWDELHI_LON NEWDELHI_GRADE NEWDELHI_WIND NEWDELHI_PRES NEWDELHI_CI NEWDELHI_DP NEWDELHI_POCI REUNION_LAT REUNION_LON REUNION_TYPE REUNION_WIND REUNION_PRES REUNION_TNUM REUNION_CI REUNION_RMW REUNION_R34_NE REUNION_R34_SE REUNION_R34_SW REUNION_R34_NW REUNION_R50_NE REUNION_R50_SE REUNION_R50_SW REUNION_R50_NW REUNION_R64_NE REUNION_R64_SE REUNION_R64_SW REUNION_R64_NW BOM_LAT BOM_LON BOM_TYPE BOM_WIND BOM_PRES BOM_TNUM BOM_CI BOM_RMW BOM_R34_NE BOM_R34_SE BOM_R34_SW BOM_R34_NW BOM_R50_NE BOM_R50_SE BOM_R50_SW BOM_R50_NW BOM_R64_NE BOM_R64_SE BOM_R64_SW BOM_R64_NW BOM_ROCI BOM_POCI BOM_EYE BOM_POS_METHOD BOM_PRES_METHOD NADI_LAT NADI_LON NADI_CAT NADI_WIND NADI_PRES WELLINGTON_LAT WELLINGTON_LON WELLINGTON_WIND WELLINGTON_PRES DS824_LAT DS824_LON DS824_STAGE DS824_WIND DS824_PRES TD9636_LAT TD9636_LON TD9636_STAGE TD9636_WIND TD9636_PRES TD9635_LAT TD9635_LON TD9635_WIND TD9635_PRES TD9635_ROCI NEUMANN_LAT NEUMANN_LON NEUMANN_CLASS NEUMANN_WIND NEUMANN_PRES MLC_LAT MLC_LON MLC_CLASS MLC_WIND MLC_PRES USA_GUST BOM_GUST BOM_GUST_PER REUNION_GUST REUNION_GUST_PER USA_SEAHGT USA_SEARAD_NE USA_SEARAD_SE USA_SEARAD_SW USA_SEARAD_NW STORM_SPEED STORM_DIR
1937347N12114 1937 65 WP MM NOT_NAMED 1937-12-13 10:00:00 NR 12.2000 114.000 main 491 467 __________O___ -1 12.2000 114.000 2 8 314
1937347N12114 1937 65 WP MM NOT_NAMED 1937-12-13 12:00:00 NR 12.3938 113.796 main 467 434 __________P___ -1 12.3938 113.796 2 8 315
1937347N12114 1937 65 WP MM NOT_NAMED 1937-12-13 15:00:00 NR 12.6866 113.496 main 434 401 __________P___ -1 12.6866 113.496 2 8 316
1937347N12114 1937 65 WP MM NOT_NAMED 1937-12-13 18:00:00 NR 12.9855 113.218 main 401 380 __________P___ -1 12.9855 113.218 2 8 320
1937347N12114 1937 65 WP MM NOT_NAMED 1937-12-13 21:00:00 NR 13.2942 112.972 main 381 371 __________P___ -1 13.2942 112.972 2 8 323
1937347N12114 1937 65 WP MM NOT_NAMED 1937-12-13 22:00:00 NR 13.4000 112.900 main 372 363 __________O___ -1 13.4000 112.900 2 8 329
1937347N12114 1937 65 WP MM NOT_NAMED 1937-12-14 00:00:00 NR 13.6166 112.772 main 365 353 __________P___ -1 13.6166 112.772 2 7 334
1937347N12114 1937 65 WP MM NOT_NAMED 1937-12-14 03:00:00 NR 13.9540 112.617 main 356 346 __________P___ -1 13.9540 112.617 2 7 339
1937347N12114 1937 65 WP MM NOT_NAMED 1937-12-14 06:00:00 NR 14.3066 112.502 main 348 341 __________P___ -1 14.3066 112.502 2 8 345
1937347N12114 1937 65 WP MM NOT_NAMED 1937-12-14 09:00:00 NR 14.6741 112.421 main 345 345 __________P___ -1 14.6741 112.421 2 8 348
1937347N12114 1937 65 WP MM NOT_NAMED 1937-12-14 10:00:00 NR 14.8000 112.400 main 348 348 __________O___ -1 14.8000 112.400 2 8 349
1937347N12114 1937 65 WP MM NOT_NAMED 1937-12-14 12:00:00 NR 15.0631 112.355 main 357 346 __________P___ -1 15.0631 112.355 2 8 353
1937347N12114 1937 65 WP MM NOT_NAMED 1937-12-14 15:00:00 NR 15.4705 112.313 main 355 355 __________P___ -1 15.4705 112.313 2 8 356
1937347N12114 1937 65 WP MM NOT_NAMED 1937-12-14 18:00:00 NR 15.8795 112.296 main 368 335 __________P___ -1 15.8795 112.296 2 8 358
1937347N12114 1937 65 WP MM NOT_NAMED 1937-12-14 21:00:00 NR 16.2743 112.297 main 335 326 __________P___ -1 16.2743 112.297 2 8 0
1937347N12114 1937 65 WP MM NOT_NAMED 1937-12-14 22:00:00 NR 16.4000 112.300 main 326 300 __________O___ -1 16.4000 112.300 2 8 1
1937347N12114 1937 65 WP MM NOT_NAMED 1937-12-15 00:00:00 NR 16.6679 112.305 main 300 269 __________P___ -1 16.6679 112.305 2 8 0
1937347N12114 1937 65 WP MM NOT_NAMED 1937-12-15 03:00:00 NR 17.0515 112.326 main 269 253 __________P___ -1 17.0515 112.326 2 7 3
1937347N12114 1937 65 WP MM NOT_NAMED 1937-12-15 06:00:00 NR 17.3857 112.356 main 254 241 __________P___ -1 17.3857 112.356 2 6 5
1937347N12114 1937 65 WP MM NOT_NAMED 1937-12-15 09:00:00 NR 17.6389 112.389 main 241 235 __________P___ -1 17.6389 112.389 2 5 7
1937347N12114 1937 65 WP MM NOT_NAMED 1937-12-15 10:00:00 NR 17.7000 112.400 main 235 229 __________O___ -1 17.7000 112.400 2 3 13
1937347N12114 1937 65 WP MM NOT_NAMED 1937-12-15 12:00:00 NR 17.7832 112.420 main 229 229 __________P___ -1 17.7832 112.420 2 2 17
1937347N12114 1937 65 WP MM NOT_NAMED 1937-12-15 15:00:00 NR 17.8257 112.447 main 229 229 __________P___ -1 17.8257 112.447 2 1 70
1937347N12114 1937 65 WP MM NOT_NAMED 1937-12-15 18:00:00 NR 17.7968 112.471 main 238 238 __________P___ -1 17.7968 112.471 2 1 161
1937347N12114 1937 65 WP MM NOT_NAMED 1937-12-15 21:00:00 NR 17.7270 112.493 main 244 244 __________P___ -1 17.7270 112.493 2 2 177
1937347N12114 1937 65 WP MM NOT_NAMED 1937-12-15 22:00:00 NR 17.7000 112.500 main 244 __________O___ -1 17.7000 112.500 2 2 0

デジタル台風データ・検索

IBTrACS Databaseについて

本データベースは、米国NOAAが公開する1842年以降の世界の熱帯低気圧のベストトラックデータアーカイブInternational Best Track Archive for Climate Stewardship (IBTrACS)を、ウェブで閲覧しやすい形式に変換したものです。

最終更新日:2021-10-27